createdAt,value
2022-07-30T00:00:24.833Z,7.5
2022-07-30T00:01:17.246Z,8.2
2022-07-30T00:02:17.281Z,7.5
2022-07-30T00:03:17.169Z,7.8
2022-07-30T00:04:17.177Z,7.5
2022-07-30T00:05:17.167Z,7.4
2022-07-30T00:06:17.113Z,7.9
2022-07-30T00:07:17.217Z,7.6
2022-07-30T00:08:17.115Z,7.3
2022-07-30T00:09:17.103Z,7.8
2022-07-30T00:10:17.217Z,7.2
2022-07-30T00:11:17.314Z,7.2
2022-07-30T00:12:17.106Z,7.4
2022-07-30T00:13:17.115Z,7.5
2022-07-30T00:14:17.311Z,7.6
2022-07-30T00:15:17.158Z,7.5
2022-07-30T00:16:17.187Z,6.8
2022-07-30T00:17:17.132Z,7
2022-07-30T00:18:17.100Z,7.1
2022-07-30T00:19:17.234Z,7.2
2022-07-30T00:20:17.100Z,7.3
2022-07-30T00:21:33.872Z,7.1
2022-07-30T00:22:17.105Z,7.1
2022-07-30T00:23:17.124Z,6.9
2022-07-30T00:24:17.147Z,7.3
2022-07-30T00:25:17.099Z,7.2
2022-07-30T00:26:17.202Z,7.1
2022-07-30T00:27:17.108Z,7.2
2022-07-30T00:28:17.099Z,7.2
2022-07-30T00:29:17.132Z,7.1
2022-07-30T00:30:17.110Z,7.2
2022-07-30T00:31:17.216Z,7.4
2022-07-30T00:32:17.103Z,6.5
2022-07-30T00:33:17.479Z,7.4
2022-07-30T00:34:17.108Z,7.1
2022-07-30T00:35:17.096Z,7.5
2022-07-30T00:36:17.124Z,7.1
2022-07-30T00:37:17.099Z,7.2
2022-07-30T00:38:17.100Z,7.1
2022-07-30T00:39:17.121Z,7.3
2022-07-30T00:40:17.100Z,7.7
2022-07-30T00:41:17.116Z,7.6
2022-07-30T00:42:17.105Z,7.2
2022-07-30T00:43:17.103Z,7.3
2022-07-30T00:44:17.110Z,7.4
2022-07-30T00:45:17.108Z,7.2
2022-07-30T00:46:17.210Z,7.4
2022-07-30T00:47:17.107Z,7.6
2022-07-30T00:48:17.108Z,7.6
2022-07-30T00:49:17.301Z,7.5
2022-07-30T00:50:17.175Z,8
2022-07-30T00:51:17.125Z,7.2
2022-07-30T00:52:17.093Z,7.5
2022-07-30T00:53:17.089Z,7.3
2022-07-30T00:54:17.225Z,7.4
2022-07-30T00:55:17.113Z,7.1
2022-07-30T00:56:17.084Z,7.2
2022-07-30T00:57:17.227Z,7.8
2022-07-30T00:58:17.224Z,7.5
2022-07-30T00:59:17.226Z,7.3
2022-07-30T01:00:17.090Z,7.4
2022-07-30T01:01:17.239Z,7.4
2022-07-30T01:02:17.133Z,7.3
2022-07-30T01:03:17.076Z,7.5
2022-07-30T01:04:17.112Z,7.3
2022-07-30T01:05:17.109Z,7.3
2022-07-30T01:06:17.115Z,7.2
2022-07-30T01:07:17.116Z,7.8
2022-07-30T01:08:17.115Z,7.3
2022-07-30T01:09:17.109Z,7.4
2022-07-30T01:10:17.120Z,7.3
2022-07-30T01:11:18.001Z,7.5
2022-07-30T01:12:17.109Z,7.1
2022-07-30T01:13:17.098Z,7.4
2022-07-30T01:14:17.096Z,8
2022-07-30T01:15:17.093Z,8.1
2022-07-30T01:16:17.157Z,7.8
2022-07-30T01:17:17.114Z,7.6
2022-07-30T01:18:17.089Z,7.3
2022-07-30T01:19:17.094Z,7.5
2022-07-30T01:20:17.113Z,7.7
2022-07-30T01:21:17.159Z,7.6
2022-07-30T01:22:17.114Z,8.2
2022-07-30T01:23:17.118Z,7.5
2022-07-30T01:24:17.120Z,7.4
2022-07-30T01:25:17.105Z,7.7
2022-07-30T01:26:17.122Z,7.4
2022-07-30T01:27:19.881Z,7.9
2022-07-30T01:28:18.622Z,7.4
2022-07-30T01:29:17.122Z,7.8
2022-07-30T01:30:17.130Z,7.8
2022-07-30T01:31:17.191Z,7.7
2022-07-30T01:32:17.120Z,7.4
2022-07-30T01:33:17.117Z,7.6
2022-07-30T01:34:17.111Z,7.8
2022-07-30T01:35:17.100Z,7.6
2022-07-30T01:36:17.102Z,7.6
2022-07-30T01:37:17.097Z,7.7
2022-07-30T01:38:17.095Z,8
2022-07-30T01:39:17.095Z,7.5
2022-07-30T01:40:17.108Z,7.7
2022-07-30T01:41:17.089Z,7.6
2022-07-30T01:42:17.097Z,7.8
2022-07-30T01:43:17.112Z,7.7
2022-07-30T01:44:17.111Z,7.7
2022-07-30T01:45:17.110Z,7.7
2022-07-30T01:46:17.224Z,7.5
2022-07-30T01:47:17.100Z,7.8
2022-07-30T01:48:17.101Z,7.8
2022-07-30T01:49:17.195Z,8.1
2022-07-30T01:50:17.113Z,8.1
2022-07-30T01:51:17.117Z,8.2
2022-07-30T01:52:17.112Z,8.1
2022-07-30T01:53:17.103Z,8
2022-07-30T01:54:17.115Z,8.3
2022-07-30T01:55:17.596Z,8.2
2022-07-30T01:56:17.129Z,8
2022-07-30T01:57:17.113Z,8.6
2022-07-30T01:58:17.100Z,8.2
2022-07-30T01:59:17.101Z,8.9
2022-07-30T02:00:17.109Z,8.9
2022-07-30T02:01:17.184Z,8.7
2022-07-30T02:02:18.046Z,8.8
2022-07-30T02:03:17.176Z,8.4
2022-07-30T02:04:17.102Z,8.7
2022-07-30T02:05:17.117Z,8.4
2022-07-30T02:06:17.110Z,8.4
2022-07-30T02:07:17.115Z,8.4
2022-07-30T02:08:17.103Z,8.3
2022-07-30T02:09:17.118Z,8.1
2022-07-30T02:10:17.107Z,7.7
2022-07-30T02:11:17.109Z,8
2022-07-30T02:12:17.104Z,8
2022-07-30T02:13:17.106Z,8.3
2022-07-30T02:14:17.105Z,9
2022-07-30T02:15:17.098Z,8
2022-07-30T02:16:17.168Z,8.7
2022-07-30T02:17:18.728Z,9
2022-07-30T02:18:17.107Z,8.6
2022-07-30T02:19:17.103Z,8.5
2022-07-30T02:20:17.100Z,8.8
2022-07-30T02:21:17.107Z,8.9
2022-07-30T02:22:17.101Z,8.6
2022-07-30T02:23:17.110Z,8.9
2022-07-30T02:24:17.106Z,8.7
2022-07-30T02:25:17.104Z,8.9
2022-07-30T02:26:17.111Z,8.5
2022-07-30T02:27:17.120Z,8.6
2022-07-30T02:28:17.101Z,8.5
2022-07-30T02:29:17.116Z,8.5
2022-07-30T02:30:17.098Z,8.6
2022-07-30T02:31:17.963Z,8.5
2022-07-30T02:32:17.113Z,8.1
2022-07-30T02:33:17.114Z,8.1
2022-07-30T02:34:17.108Z,8.2
2022-07-30T02:35:17.107Z,8.2
2022-07-30T02:36:17.119Z,8.7
2022-07-30T02:37:17.108Z,8.2
2022-07-30T02:38:17.111Z,8.7
2022-07-30T02:39:17.112Z,9
2022-07-30T02:40:17.109Z,8.8
2022-07-30T02:41:17.113Z,8.5
2022-07-30T02:42:17.105Z,8.9
2022-07-30T02:43:17.111Z,9
2022-07-30T02:44:17.103Z,8.5
2022-07-30T02:45:17.105Z,9
2022-07-30T02:46:17.205Z,8.6
2022-07-30T02:47:17.112Z,8.7
2022-07-30T02:48:34.686Z,8.5
2022-07-30T02:49:17.163Z,8.7
2022-07-30T02:50:17.103Z,8.9
2022-07-30T02:51:17.109Z,8.5
2022-07-30T02:52:17.103Z,9.1
2022-07-30T02:53:17.107Z,8.8
2022-07-30T02:54:17.098Z,8.7
2022-07-30T02:55:17.105Z,9
2022-07-30T02:56:17.126Z,8.7
2022-07-30T02:57:17.115Z,8.9
2022-07-30T02:58:17.115Z,9.1
2022-07-30T02:59:17.115Z,9
2022-07-30T03:00:17.113Z,9.2
2022-07-30T03:01:17.358Z,8.8
2022-07-30T03:02:17.166Z,9.4
2022-07-30T03:03:17.099Z,9.5
2022-07-30T03:04:17.100Z,9.2
2022-07-30T03:05:17.106Z,9.2
2022-07-30T03:06:17.115Z,9
2022-07-30T03:07:17.120Z,9.5
2022-07-30T03:08:19.263Z,9.3
2022-07-30T03:09:17.109Z,9.2
2022-07-30T03:10:17.095Z,9.3
2022-07-30T03:11:17.111Z,9.1
2022-07-30T03:12:17.105Z,9.4
2022-07-30T03:13:17.149Z,9.2
2022-07-30T03:14:17.105Z,9.1
2022-07-30T03:15:17.114Z,9.2
2022-07-30T03:16:17.199Z,9.9
2022-07-30T03:17:17.128Z,9.5
2022-07-30T03:18:17.110Z,9.8
2022-07-30T03:19:17.123Z,9.4
2022-07-30T03:20:17.105Z,9.4
2022-07-30T03:21:17.108Z,9.4
2022-07-30T03:22:17.094Z,9.5
2022-07-30T03:23:17.096Z,9.3
2022-07-30T03:24:17.091Z,9.8
2022-07-30T03:25:17.086Z,10.2
2022-07-30T03:26:17.099Z,9.6
2022-07-30T03:27:17.101Z,10
2022-07-30T03:28:17.098Z,9.9
2022-07-30T03:29:17.100Z,9.9
2022-07-30T03:30:17.097Z,9.5
2022-07-30T03:31:17.189Z,9.5
2022-07-30T03:32:17.105Z,10.2
2022-07-30T03:33:17.093Z,9.9
2022-07-30T03:34:17.097Z,9.8
2022-07-30T03:35:17.617Z,9.8
2022-07-30T03:36:17.117Z,9.5
2022-07-30T03:37:17.110Z,9.6
2022-07-30T03:38:17.103Z,9.7
2022-07-30T03:39:17.129Z,8.8
2022-07-30T03:40:17.113Z,10.3
2022-07-30T03:41:17.119Z,10
2022-07-30T03:42:17.098Z,10
2022-07-30T03:43:32.597Z,10.4
2022-07-30T03:44:17.097Z,10.2
2022-07-30T03:45:17.095Z,9.9
2022-07-30T03:46:17.156Z,10.5
2022-07-30T03:47:17.106Z,9.7
2022-07-30T03:48:17.086Z,10.7
2022-07-30T03:49:17.129Z,10.4
2022-07-30T03:50:17.111Z,10.2
2022-07-30T03:51:17.114Z,10.4
2022-07-30T03:52:17.100Z,10.4
2022-07-30T03:53:17.105Z,10.4
2022-07-30T03:54:17.109Z,10.8
2022-07-30T03:55:17.131Z,10.1
2022-07-30T03:56:17.104Z,10.5
2022-07-30T03:57:19.384Z,11.1
2022-07-30T03:58:17.105Z,11.1
2022-07-30T03:59:17.103Z,11
2022-07-30T04:00:17.108Z,10.9
2022-07-30T04:01:17.170Z,11.3
2022-07-30T04:02:17.126Z,10.9
2022-07-30T04:03:17.131Z,11.2
2022-07-30T04:04:17.102Z,10.4
2022-07-30T04:05:17.105Z,11.4
2022-07-30T04:06:17.113Z,10.9
2022-07-30T04:07:17.102Z,11.4
2022-07-30T04:08:17.104Z,10.9
2022-07-30T04:09:17.102Z,11.2
2022-07-30T04:10:17.109Z,11
2022-07-30T04:11:17.118Z,11.4
2022-07-30T04:12:17.101Z,11.6
2022-07-30T04:13:17.096Z,11.1
2022-07-30T04:14:17.100Z,11.8
2022-07-30T04:16:37.886Z,11.5
2022-07-30T04:16:41.535Z,12.3
2022-07-30T04:17:17.139Z,11.7
2022-07-30T04:18:17.105Z,11.3
2022-07-30T04:19:17.095Z,11.4
2022-07-30T04:20:18.182Z,12
2022-07-30T04:21:17.483Z,11.7
2022-07-30T04:22:17.095Z,11.6
2022-07-30T04:23:17.096Z,11.6
2022-07-30T04:24:17.105Z,12
2022-07-30T04:25:18.541Z,12.2
2022-07-30T04:26:17.112Z,12.6
2022-07-30T04:27:17.096Z,11.8
2022-07-30T04:28:17.097Z,11.7
2022-07-30T04:29:20.231Z,12.2
2022-07-30T04:30:17.094Z,12.1
2022-07-30T04:31:17.189Z,12.5
2022-07-30T04:32:17.116Z,12.4
2022-07-30T04:33:17.114Z,11.8
2022-07-30T04:34:17.159Z,11.9
2022-07-30T04:35:49.965Z,11.5
2022-07-30T04:36:17.119Z,12.2
2022-07-30T04:37:17.103Z,12.5
2022-07-30T04:38:17.096Z,11.7
2022-07-30T04:39:17.094Z,11.7
2022-07-30T04:40:17.096Z,12.3
2022-07-30T04:41:17.127Z,11.7
2022-07-30T04:42:17.097Z,11.6
2022-07-30T04:43:17.102Z,12.5
2022-07-30T04:44:17.101Z,12.7
2022-07-30T04:45:17.096Z,12.3
2022-07-30T04:46:17.178Z,13.2
2022-07-30T04:47:17.114Z,12.9
2022-07-30T04:48:17.096Z,12.6
2022-07-30T04:49:17.220Z,12.8
2022-07-30T04:50:17.107Z,13
2022-07-30T04:51:17.109Z,12.7
2022-07-30T04:52:17.098Z,12.8
2022-07-30T04:53:17.101Z,13.3
2022-07-30T04:54:17.101Z,12.2
2022-07-30T04:55:17.098Z,12
2022-07-30T04:56:17.097Z,12.5
2022-07-30T04:57:17.092Z,13.5
2022-07-30T04:58:17.089Z,12.5
2022-07-30T04:59:17.091Z,12.5
2022-07-30T05:00:17.102Z,12.8
2022-07-30T05:01:17.189Z,11.6
2022-07-30T05:02:17.199Z,11.2
2022-07-30T05:03:17.101Z,13.1
2022-07-30T05:04:17.098Z,12.5
2022-07-30T05:05:17.179Z,11.4
2022-07-30T05:06:17.107Z,12.2
2022-07-30T05:07:17.101Z,12.3
2022-07-30T05:08:17.108Z,12.1
2022-07-30T05:09:17.111Z,12.5
2022-07-30T05:10:17.120Z,12.6
2022-07-30T05:11:17.112Z,12.8
2022-07-30T05:12:17.091Z,13.6
2022-07-30T05:13:17.100Z,12.6
2022-07-30T05:14:17.097Z,13.2
2022-07-30T05:15:17.109Z,13.3
2022-07-30T05:16:17.158Z,13.4
2022-07-30T05:17:17.107Z,13.8
2022-07-30T05:18:17.104Z,12.8
2022-07-30T05:19:17.112Z,12.1
2022-07-30T05:20:17.112Z,13.2
2022-07-30T05:21:17.138Z,12.5
2022-07-30T05:22:17.101Z,13
2022-07-30T05:23:17.101Z,13.4
2022-07-30T05:24:17.103Z,13.4
2022-07-30T05:25:17.111Z,13.2
2022-07-30T05:26:17.120Z,13.5
2022-07-30T05:27:17.123Z,12.9
2022-07-30T05:28:17.106Z,12.8
2022-07-30T05:29:19.996Z,13
2022-07-30T05:30:17.104Z,13.8
2022-07-30T05:31:17.141Z,14.1
2022-07-30T05:32:17.109Z,13.8
2022-07-30T05:33:17.096Z,14
2022-07-30T05:34:17.110Z,14
2022-07-30T05:35:17.105Z,15.3
2022-07-30T05:36:17.109Z,13.8
2022-07-30T05:37:17.101Z,14
2022-07-30T05:38:17.103Z,13.4
2022-07-30T05:39:17.110Z,14.7
2022-07-30T05:40:17.111Z,13.8
2022-07-30T05:41:30.627Z,14.9
2022-07-30T05:42:17.103Z,14.6
2022-07-30T05:43:17.099Z,14.3
2022-07-30T05:44:22.004Z,15.1
2022-07-30T05:45:17.098Z,15.6
2022-07-30T05:46:17.162Z,14.3
2022-07-30T05:47:17.120Z,15.4
2022-07-30T05:48:17.090Z,14.3
2022-07-30T05:49:17.138Z,14.6
2022-07-30T05:50:17.105Z,15.5
2022-07-30T05:51:17.126Z,14.7
2022-07-30T05:52:17.103Z,14.2
2022-07-30T05:53:17.108Z,14.8
2022-07-30T05:54:17.106Z,15.1
2022-07-30T05:55:17.128Z,14.6
2022-07-30T05:56:17.117Z,15.4
2022-07-30T05:57:17.100Z,16.1
2022-07-30T05:58:17.103Z,16.1
2022-07-30T05:59:17.106Z,17.3
2022-07-30T06:00:17.165Z,17.3
2022-07-30T06:01:17.173Z,18.3
2022-07-30T06:02:17.128Z,17.5
2022-07-30T06:03:17.096Z,18
2022-07-30T06:04:17.167Z,17.2
2022-07-30T06:05:17.121Z,18.6
2022-07-30T06:06:22.447Z,17.4
2022-07-30T06:07:17.106Z,19.2
2022-07-30T06:08:17.110Z,20.2
2022-07-30T06:09:17.119Z,19.8
2022-07-30T06:10:17.130Z,23.2
2022-07-30T06:11:17.114Z,22.5
2022-07-30T06:12:17.098Z,23.4
2022-07-30T06:13:17.101Z,19.8
2022-07-30T06:14:17.100Z,17.1
2022-07-30T06:15:20.549Z,19.8
2022-07-30T06:16:17.198Z,21.3
2022-07-30T06:17:17.109Z,20.6
2022-07-30T06:18:17.099Z,19.3
2022-07-30T06:19:19.697Z,16.6
2022-07-30T06:20:17.160Z,17.7
2022-07-30T06:21:17.129Z,16.9
2022-07-30T06:22:17.115Z,17.8
2022-07-30T06:23:17.138Z,19.7
2022-07-30T06:24:17.111Z,21.2
2022-07-30T06:25:18.682Z,20.8
2022-07-30T06:26:17.114Z,22.3
2022-07-30T06:27:17.103Z,20.5
2022-07-30T06:28:36.319Z,19
2022-07-30T06:29:17.098Z,22.2
2022-07-30T06:30:17.148Z,19.6
2022-07-30T06:31:17.182Z,19.5
2022-07-30T06:32:17.115Z,20.8
2022-07-30T06:33:17.108Z,18.2
2022-07-30T06:34:17.123Z,17.9
2022-07-30T06:35:17.118Z,18.7
2022-07-30T06:36:17.180Z,20.7
2022-07-30T06:37:17.113Z,18.3
2022-07-30T06:38:17.136Z,17.7
2022-07-30T06:39:53.904Z,17.8
2022-07-30T06:40:17.110Z,19.9
2022-07-30T06:41:17.115Z,16.7
2022-07-30T06:42:17.106Z,18.8
2022-07-30T06:43:17.112Z,17.1
2022-07-30T06:44:17.098Z,15.4
2022-07-30T06:45:17.107Z,16.2
2022-07-30T06:46:17.137Z,14.3
2022-07-30T06:47:17.131Z,15.9
2022-07-30T06:48:17.103Z,15.2
2022-07-30T06:49:17.267Z,14.7
2022-07-30T06:50:17.106Z,16.1
2022-07-30T06:51:17.138Z,16.6
2022-07-30T06:52:18.829Z,14.6
2022-07-30T06:53:17.109Z,14.9
2022-07-30T06:54:17.123Z,13.9
2022-07-30T06:55:17.111Z,15
2022-07-30T06:56:17.129Z,15.2
2022-07-30T06:57:17.106Z,14.1
2022-07-30T06:58:17.127Z,14.5
2022-07-30T06:59:17.113Z,15.8
2022-07-30T07:00:17.115Z,15.8
2022-07-30T07:01:17.158Z,15.1
2022-07-30T07:02:17.122Z,14.2
2022-07-30T07:03:17.105Z,13.8
2022-07-30T07:04:17.192Z,13
2022-07-30T07:05:17.119Z,13.3
2022-07-30T07:06:17.114Z,13.3
2022-07-30T07:07:31.554Z,13.3
2022-07-30T07:08:17.098Z,13.1
2022-07-30T07:09:17.104Z,13.4
2022-07-30T07:10:17.139Z,13.4
2022-07-30T07:11:17.115Z,13.1
2022-07-30T07:12:17.099Z,12.3
2022-07-30T07:13:17.110Z,12.6
2022-07-30T07:14:17.097Z,12.2
2022-07-30T07:15:17.119Z,12.2
2022-07-30T07:16:17.109Z,12.7
2022-07-30T07:17:17.205Z,12.5
2022-07-30T07:18:17.103Z,12
2022-07-30T07:19:59.590Z,11.6
2022-07-30T07:20:17.115Z,11.1
2022-07-30T07:21:17.124Z,11.3
2022-07-30T07:22:17.113Z,10.5
2022-07-30T07:23:19.741Z,11.2
2022-07-30T07:24:17.099Z,11.2
2022-07-30T07:25:17.105Z,10.9
2022-07-30T07:26:17.106Z,11.3
2022-07-30T07:27:17.100Z,10.7
2022-07-30T07:28:17.101Z,11.3
2022-07-30T07:29:17.093Z,11.4
2022-07-30T07:30:17.093Z,11.4
2022-07-30T07:32:02.523Z,11.1
2022-07-30T07:32:17.105Z,11.2
2022-07-30T07:33:17.091Z,11
2022-07-30T07:34:17.308Z,10
2022-07-30T07:35:17.095Z,10
2022-07-30T07:36:17.106Z,11.5
2022-07-30T07:37:17.112Z,11.5
2022-07-30T07:38:17.107Z,11.3
2022-07-30T07:39:17.103Z,11.1
2022-07-30T07:40:17.108Z,11.1
2022-07-30T07:41:17.114Z,11.3
2022-07-30T07:42:17.095Z,12.1
2022-07-30T07:43:17.096Z,11.7
2022-07-30T07:44:17.100Z,12.1
2022-07-30T07:45:17.098Z,11.3
2022-07-30T07:46:17.473Z,12.3
2022-07-30T07:47:17.173Z,11.6
2022-07-30T07:48:17.096Z,11.8
2022-07-30T07:49:17.225Z,13
2022-07-30T07:50:17.122Z,13
2022-07-30T07:51:17.126Z,12.4
2022-07-30T07:52:17.112Z,12.4
2022-07-30T07:53:17.108Z,12.5
2022-07-30T07:54:21.994Z,13.1
2022-07-30T07:55:17.164Z,12.5
2022-07-30T07:56:17.275Z,11.7
2022-07-30T07:57:17.104Z,11.4
2022-07-30T07:58:25.411Z,11
2022-07-30T07:59:17.250Z,11.7
2022-07-30T08:00:17.115Z,11.7
2022-07-30T08:01:17.200Z,12.1
2022-07-30T08:02:17.215Z,11.9
2022-07-30T08:03:17.108Z,12.3
2022-07-30T08:04:17.109Z,11.7
2022-07-30T08:05:17.121Z,11.9
2022-07-30T08:06:17.105Z,12.6
2022-07-30T08:07:17.096Z,11.9
2022-07-30T08:08:17.093Z,12.3
2022-07-30T08:09:17.090Z,11.4
2022-07-30T08:10:17.104Z,11.4
2022-07-30T08:11:17.118Z,12.4
2022-07-30T08:12:17.101Z,12.3
2022-07-30T08:13:49.038Z,12
2022-07-30T08:14:17.098Z,11.4
2022-07-30T08:15:21.544Z,11.4
2022-07-30T08:16:17.219Z,11.3
2022-07-30T08:17:17.948Z,11.8
2022-07-30T08:18:17.111Z,12.2
2022-07-30T08:19:17.096Z,12.7
2022-07-30T08:20:17.104Z,12.7
2022-07-30T08:21:17.119Z,11.9
2022-07-30T08:22:17.094Z,11
2022-07-30T08:23:17.105Z,12.2
2022-07-30T08:24:17.093Z,12
2022-07-30T08:25:22.180Z,12
2022-07-30T08:26:17.110Z,11.5
2022-07-30T08:27:17.100Z,13.5
2022-07-30T08:28:35.283Z,12.6
2022-07-30T08:29:17.420Z,12.1
2022-07-30T08:30:17.108Z,12.1
2022-07-30T08:31:17.113Z,12.1
2022-07-30T08:32:17.115Z,12.7
2022-07-30T08:33:17.101Z,12.2
2022-07-30T08:34:17.118Z,12.5
2022-07-30T08:35:17.097Z,12.5
2022-07-30T08:36:17.106Z,13.3
2022-07-30T08:37:17.095Z,11.2
2022-07-30T08:38:17.106Z,11.6
2022-07-30T08:39:17.101Z,11.4
2022-07-30T08:40:17.100Z,11.4
2022-07-30T08:41:17.114Z,12.4
2022-07-30T08:42:17.096Z,13
2022-07-30T08:43:17.097Z,12.4
2022-07-30T08:44:17.095Z,12.7
2022-07-30T08:45:17.102Z,12.7
2022-07-30T08:46:17.105Z,12.3
2022-07-30T08:47:17.124Z,11.8
2022-07-30T08:48:17.112Z,12
2022-07-30T08:49:17.135Z,12.8
2022-07-30T08:50:17.201Z,12.8
2022-07-30T08:51:17.109Z,11.3
2022-07-30T08:52:17.110Z,11.4
2022-07-30T08:53:17.105Z,12.4
2022-07-30T08:54:17.106Z,11.7
2022-07-30T08:55:17.094Z,11.7
2022-07-30T08:56:17.118Z,10.7
2022-07-30T08:57:17.167Z,11.8
2022-07-30T08:58:18.203Z,10.3
2022-07-30T08:59:17.101Z,9.6
2022-07-30T09:00:17.102Z,9.6
2022-07-30T09:01:17.106Z,11.5
2022-07-30T09:02:17.108Z,12.1
2022-07-30T09:03:17.087Z,25.2
2022-07-30T09:04:17.090Z,20.2
2022-07-30T09:05:17.095Z,20.2
2022-07-30T09:06:17.104Z,11.7
2022-07-30T09:07:17.095Z,21.7
2022-07-30T09:08:18.696Z,17.9
2022-07-30T09:09:17.096Z,12.9
2022-07-30T09:10:17.118Z,12.9
2022-07-30T09:11:17.106Z,10.7
2022-07-30T09:12:17.107Z,11.2
2022-07-30T09:13:17.105Z,10.8
2022-07-30T09:14:17.107Z,10.6
2022-07-30T09:15:17.104Z,10.6
2022-07-30T09:17:17.119Z,10.4
2022-07-30T09:18:17.113Z,10.1
2022-07-30T09:19:17.112Z,9.6
2022-07-30T09:20:17.116Z,9.6
2022-07-30T09:21:17.109Z,10
2022-07-30T09:22:17.095Z,9.3
2022-07-30T09:23:17.101Z,8.9
2022-07-30T09:24:17.112Z,10.1
2022-07-30T09:25:17.117Z,10.1
2022-07-30T09:26:17.129Z,9.8
2022-07-30T09:27:17.106Z,9.8
2022-07-30T09:28:17.228Z,10.2
2022-07-30T09:29:17.126Z,9.7
2022-07-30T09:30:17.300Z,9.7
2022-07-30T09:31:17.259Z,9.8
2022-07-30T09:32:17.114Z,9.8
2022-07-30T09:33:17.102Z,9.6
2022-07-30T09:34:17.098Z,9.9
2022-07-30T09:35:17.096Z,9.9
2022-07-30T09:36:17.142Z,10.1
2022-07-30T09:37:17.145Z,10.8
2022-07-30T09:38:17.134Z,10.2
2022-07-30T09:39:17.113Z,9.9
2022-07-30T09:40:17.186Z,9.9
2022-07-30T09:41:29.375Z,10.1
2022-07-30T09:42:17.100Z,10.1
2022-07-30T09:43:17.105Z,9.9
2022-07-30T09:44:17.108Z,9.4
2022-07-30T09:45:17.114Z,9.4
2022-07-30T09:46:17.111Z,9.5
2022-07-30T09:47:17.124Z,9.4
2022-07-30T09:48:17.120Z,9.8
2022-07-30T09:49:17.354Z,9.2
2022-07-30T09:50:29.299Z,9.2
2022-07-30T09:51:19.302Z,9.6
2022-07-30T09:52:17.113Z,9.2
2022-07-30T09:53:17.115Z,9.6
2022-07-30T09:54:17.113Z,9.5
2022-07-30T09:55:17.106Z,9.5
2022-07-30T09:56:17.120Z,9.9
2022-07-30T09:58:27.071Z,9.3
2022-07-30T09:59:18.540Z,9.6
2022-07-30T10:00:17.123Z,9.6
2022-07-30T10:01:17.129Z,9.6
2022-07-30T10:02:17.127Z,9.9
2022-07-30T10:03:21.811Z,9.3
2022-07-30T10:04:17.106Z,8.8
2022-07-30T10:05:17.119Z,8.8
2022-07-30T10:06:17.131Z,9.1
2022-07-30T10:07:17.104Z,9.1
2022-07-30T10:08:18.992Z,9.4
2022-07-30T10:09:17.099Z,9.3
2022-07-30T10:10:17.189Z,9.3
2022-07-30T10:11:17.108Z,8.7
2022-07-30T10:12:17.098Z,8.5
2022-07-30T10:13:19.641Z,8.8
2022-07-30T10:14:17.098Z,8.8
2022-07-30T10:15:17.097Z,8.8
2022-07-30T10:16:17.163Z,8.2
2022-07-30T10:17:17.456Z,8
2022-07-30T10:18:18.152Z,8.8
2022-07-30T10:19:18.227Z,8.8
2022-07-30T10:20:17.111Z,8.8
2022-07-30T10:21:17.114Z,8.8
2022-07-30T10:22:17.283Z,8.8
2022-07-30T10:23:18.402Z,8.5
2022-07-30T10:24:17.097Z,8.9
2022-07-30T10:25:17.100Z,8.9
2022-07-30T10:26:17.420Z,8.7
2022-07-30T10:27:17.098Z,8.5
2022-07-30T10:28:17.098Z,8.1
2022-07-30T10:29:17.104Z,9.2
2022-07-30T10:30:17.118Z,9.2
2022-07-30T10:31:49.490Z,10.3
2022-07-30T10:32:17.122Z,8.3
2022-07-30T10:33:34.656Z,8.3
2022-07-30T10:34:17.102Z,8.3
2022-07-30T10:35:34.801Z,8.3
2022-07-30T10:36:17.104Z,8.6
2022-07-30T10:37:17.096Z,7.7
2022-07-30T10:38:17.106Z,8.5
2022-07-30T10:39:17.098Z,7.8
2022-07-30T10:40:17.100Z,7.8
2022-07-30T10:41:17.112Z,7.4
2022-07-30T10:42:17.096Z,6.7
2022-07-30T10:43:17.108Z,6.2
2022-07-30T10:44:17.107Z,6.4
2022-07-30T10:45:17.892Z,6.4
2022-07-30T10:46:19.981Z,6.1
2022-07-30T10:47:17.123Z,5.9
2022-07-30T10:48:17.117Z,5.8
2022-07-30T10:49:19.085Z,6.1
2022-07-30T10:50:17.104Z,6.1
2022-07-30T10:51:18.588Z,5.8
2022-07-30T10:52:17.109Z,5.6
2022-07-30T10:53:17.113Z,6
2022-07-30T10:54:17.109Z,6.1
2022-07-30T10:55:17.128Z,6.1
2022-07-30T10:56:17.119Z,4.9
2022-07-30T10:57:22.819Z,4.8
2022-07-30T10:58:18.027Z,4.9
2022-07-30T10:59:17.101Z,4.4
2022-07-30T11:00:17.863Z,4.4
2022-07-30T11:01:18.378Z,4.5
2022-07-30T11:02:17.729Z,4.2
2022-07-30T11:03:17.100Z,4.2
2022-07-30T11:04:17.104Z,4.1
2022-07-30T11:05:17.132Z,4
2022-07-30T11:06:24.568Z,3.6
2022-07-30T11:07:17.474Z,3.6
2022-07-30T11:08:17.099Z,3.4
2022-07-30T11:09:17.116Z,3.1
2022-07-30T11:10:17.111Z,3.1
2022-07-30T11:11:20.147Z,3.3
2022-07-30T11:12:17.188Z,3.2
2022-07-30T11:13:17.098Z,3.3
2022-07-30T11:14:17.100Z,3
2022-07-30T11:15:19.001Z,3
2022-07-30T11:16:17.104Z,3.5
2022-07-30T11:17:17.109Z,3.2
2022-07-30T11:18:17.137Z,3.2
2022-07-30T11:19:53.181Z,2.8
2022-07-30T11:20:17.103Z,2.8
2022-07-30T11:21:17.120Z,3.1
2022-07-30T11:22:17.095Z,3
2022-07-30T11:23:17.109Z,3
2022-07-30T11:24:17.110Z,3
2022-07-30T11:25:17.097Z,3
2022-07-30T11:26:17.104Z,2.8
2022-07-30T11:27:17.106Z,3
2022-07-30T11:28:17.090Z,3.1
2022-07-30T11:29:17.092Z,3.2
2022-07-30T11:30:17.973Z,3.2
2022-07-30T11:31:17.109Z,3.2
2022-07-30T11:32:17.109Z,3.2
2022-07-30T11:33:18.668Z,3.3
2022-07-30T11:34:17.097Z,3.7
2022-07-30T11:35:17.104Z,3.7
2022-07-30T11:36:17.112Z,3.7
2022-07-30T11:37:21.681Z,3.5
2022-07-30T11:38:18.657Z,3.5
2022-07-30T11:39:17.109Z,3.4
2022-07-30T11:40:17.096Z,3.8
2022-07-30T11:41:17.103Z,3.8
2022-07-30T11:42:17.094Z,3.9
2022-07-30T11:43:17.093Z,3.8
2022-07-30T11:44:17.089Z,3.6
2022-07-30T11:45:17.102Z,3.6
2022-07-30T11:46:17.102Z,3.7
2022-07-30T11:47:17.116Z,3.9
2022-07-30T11:48:17.107Z,3.9
2022-07-30T11:49:17.202Z,4.2
2022-07-30T11:50:17.093Z,4.2
2022-07-30T11:51:17.113Z,4.2
2022-07-30T11:52:17.104Z,4.3
2022-07-30T11:53:17.095Z,4.3
2022-07-30T11:54:17.097Z,4.4
2022-07-30T11:55:17.098Z,4.6
2022-07-30T11:56:17.107Z,4.7
2022-07-30T11:57:17.107Z,5.3
2022-07-30T11:58:17.114Z,4.8
2022-07-30T11:59:17.095Z,5
2022-07-30T12:00:17.108Z,5
2022-07-30T12:01:17.114Z,4.7
2022-07-30T12:02:17.112Z,5.2
2022-07-30T12:03:17.106Z,5.3
2022-07-30T12:04:17.119Z,5.1
2022-07-30T12:05:17.097Z,5.1
2022-07-30T12:06:17.099Z,5.4
2022-07-30T12:07:17.093Z,5.3
2022-07-30T12:08:35.310Z,5.1
2022-07-30T12:09:17.087Z,5.6
2022-07-30T12:10:17.131Z,6.1
2022-07-30T12:11:17.115Z,6.6
2022-07-30T12:12:17.097Z,7.1
2022-07-30T12:13:17.095Z,7.1
2022-07-30T12:14:17.106Z,7.4
2022-07-30T12:15:17.114Z,7.2
2022-07-30T12:16:17.125Z,7.5
2022-07-30T12:17:17.111Z,7.9
2022-07-30T12:18:26.236Z,8
2022-07-30T12:19:17.098Z,8.1
2022-07-30T12:20:17.114Z,7.9
2022-07-30T12:21:17.137Z,8.2
2022-07-30T12:22:17.108Z,8.1
2022-07-30T12:23:21.714Z,8.5
2022-07-30T12:24:17.126Z,8.2
2022-07-30T12:25:17.114Z,8.8
2022-07-30T12:26:17.106Z,8.3
2022-07-30T12:27:17.094Z,8.7
2022-07-30T12:28:17.103Z,9
2022-07-30T12:29:17.102Z,9.3
2022-07-30T12:30:17.097Z,9.2
2022-07-30T12:31:17.111Z,9.6
2022-07-30T12:32:17.109Z,9.6
2022-07-30T12:33:17.092Z,9.5
2022-07-30T12:34:17.095Z,9.5
2022-07-30T12:35:17.102Z,10.1
2022-07-30T12:36:17.122Z,10.4
2022-07-30T12:37:17.092Z,10.2
2022-07-30T12:38:17.097Z,10.3
2022-07-30T12:39:17.090Z,11.1
2022-07-30T12:40:17.113Z,11.6
2022-07-30T12:41:17.108Z,11.8
2022-07-30T12:42:17.094Z,12.2
2022-07-30T12:43:17.089Z,12.4
2022-07-30T12:44:17.106Z,12.7
2022-07-30T12:45:17.093Z,13.6
2022-07-30T12:46:17.096Z,13.6
2022-07-30T12:47:17.129Z,14
2022-07-30T12:48:17.098Z,14.6
2022-07-30T12:49:22.259Z,14.2
2022-07-30T12:50:17.105Z,13.9
2022-07-30T12:51:17.152Z,13.6
2022-07-30T12:52:18.629Z,14.4
2022-07-30T12:53:17.112Z,15
2022-07-30T12:54:17.107Z,14.5
2022-07-30T12:55:17.102Z,15
2022-07-30T12:56:17.103Z,15
2022-07-30T12:57:17.110Z,14.9
2022-07-30T12:58:17.097Z,15.5
2022-07-30T12:59:17.088Z,14.5
2022-07-30T13:00:17.112Z,15
2022-07-30T13:01:17.214Z,14.9
2022-07-30T13:02:17.098Z,14.8
2022-07-30T13:03:17.088Z,15.6
2022-07-30T13:04:17.095Z,15
2022-07-30T13:05:17.092Z,15.5
2022-07-30T13:06:17.105Z,15.6
2022-07-30T13:07:17.091Z,16.6
2022-07-30T13:08:17.101Z,16.9
2022-07-30T13:09:17.102Z,16.9
2022-07-30T13:10:17.103Z,17.1
2022-07-30T13:11:17.120Z,17.6
2022-07-30T13:12:17.096Z,17.4
2022-07-30T13:13:17.098Z,17.2
2022-07-30T13:14:17.114Z,17.7
2022-07-30T13:15:17.098Z,17.4
2022-07-30T13:16:17.154Z,18
2022-07-30T13:17:17.115Z,17.6
2022-07-30T13:18:17.106Z,18.3
2022-07-30T13:19:17.109Z,18.8
2022-07-30T13:20:17.106Z,18.5
2022-07-30T13:21:17.121Z,19.1
2022-07-30T13:22:17.098Z,20.1
2022-07-30T13:23:17.098Z,19.7
2022-07-30T13:24:17.851Z,19.7
2022-07-30T13:25:17.107Z,17.9
2022-07-30T13:26:17.113Z,17.5
2022-07-30T13:27:17.104Z,17.9
2022-07-30T13:28:17.098Z,17.4
2022-07-30T13:29:17.104Z,17.6
2022-07-30T13:30:17.116Z,17.5
2022-07-30T13:31:17.113Z,17.3
2022-07-30T13:32:17.116Z,17.9
2022-07-30T13:33:17.103Z,17.5
2022-07-30T13:34:17.131Z,17.7
2022-07-30T13:35:17.101Z,18.4
2022-07-30T13:36:17.107Z,18.8
2022-07-30T13:37:17.105Z,18.4
2022-07-30T13:38:17.687Z,17.8